Champion, North Carolina
Current Conditions -  °F | °C
As of 8:15 PM on Sunday 23 Nov 2014 (Local Time) from KTNB Reporting Station
Unknown Precip Unknown Precip  
Wind Chill: 42°   Ceiling: 500
Heat Index: 45°   Visibility: 1.5mi
Dew Point: 45°   Wind: 5mph
Humidity: 100%   Direction: 90°E
Pressure: 29.77"   Gusts: NA
Location:  36.1322°N, 81.415°W
Report Text: KTNB 240115Z AUTO 09004KT 1 1/2SM UP BKN005 OVC010 07/07 A2977 RMK AO2 VIS 1V3 LTG DSNT S P0018 T00710071
Loading
Personal Weather Stations






























Interactive Weather Map New forecast layout! Learn more

10-Day Weather Forecast

Advertisements
Track Severe Weather on mobile